sensor_id;sensor_type;location;lat;lon;timestamp;P1;durP1;ratioP1;P2;durP2;ratioP2
19179;SDS011;9722;48.754;8.868;2023-10-19T00:02:20;3.80;;;3.50;;
19179;SDS011;9722;48.754;8.868;2023-10-19T00:05:43;3.63;;;3.33;;
19179;SDS011;9722;48.754;8.868;2023-10-19T00:09:05;3.27;;;2.97;;
19179;SDS011;9722;48.754;8.868;2023-10-19T00:12:31;3.13;;;2.60;;
19179;SDS011;9722;48.754;8.868;2023-10-19T00:15:52;3.00;;;2.63;;
19179;SDS011;9722;48.754;8.868;2023-10-19T00:19:13;3.17;;;2.87;;
19179;SDS011;9722;48.754;8.868;2023-10-19T00:22:39;3.47;;;3.23;;
19179;SDS011;9722;48.754;8.868;2023-10-19T00:26:00;4.20;;;2.70;;
19179;SDS011;9722;48.754;8.868;2023-10-19T00:29:28;3.03;;;2.83;;
19179;SDS011;9722;48.754;8.868;2023-10-19T00:33:00;3.67;;;3.40;;
19179;SDS011;9722;48.754;8.868;2023-10-19T00:36:23;2.93;;;2.63;;
19179;SDS011;9722;48.754;8.868;2023-10-19T00:39:46;2.87;;;2.57;;
19179;SDS011;9722;48.754;8.868;2023-10-19T00:43:14;4.23;;;3.10;;
19179;SDS011;9722;48.754;8.868;2023-10-19T00:46:46;3.33;;;3.03;;
19179;SDS011;9722;48.754;8.868;2023-10-19T00:50:15;3.27;;;3.03;;
19179;SDS011;9722;48.754;8.868;2023-10-19T00:53:37;3.07;;;2.80;;
19179;SDS011;9722;48.754;8.868;2023-10-19T00:57:00;3.83;;;2.57;;
19179;SDS011;9722;48.754;8.868;2023-10-19T01:00:30;2.70;;;2.50;;
19179;SDS011;9722;48.754;8.868;2023-10-19T01:03:51;3.40;;;3.10;;
19179;SDS011;9722;48.754;8.868;2023-10-19T01:07:18;4.53;;;2.80;;
19179;SDS011;9722;48.754;8.868;2023-10-19T01:10:42;3.43;;;3.13;;
19179;SDS011;9722;48.754;8.868;2023-10-19T01:14:21;2.90;;;2.70;;
19179;SDS011;9722;48.754;8.868;2023-10-19T01:21:04;2.73;;;2.53;;
19179;SDS011;9722;48.754;8.868;2023-10-19T01:24:27;2.80;;;2.60;;
19179;SDS011;9722;48.754;8.868;2023-10-19T01:28:06;3.47;;;3.27;;
19179;SDS011;9722;48.754;8.868;2023-10-19T01:31:28;2.70;;;2.50;;
19179;SDS011;9722;48.754;8.868;2023-10-19T01:34:48;3.70;;;3.40;;
19179;SDS011;9722;48.754;8.868;2023-10-19T01:38:09;3.33;;;3.03;;
19179;SDS011;9722;48.754;8.868;2023-10-19T01:41:29;5.27;;;3.77;;
19179;SDS011;9722;48.754;8.868;2023-10-19T01:44:53;5.43;;;4.23;;
19179;SDS011;9722;48.754;8.868;2023-10-19T01:48:13;8.10;;;4.47;;
19179;SDS011;9722;48.754;8.868;2023-10-19T01:51:35;4.07;;;3.57;;
19179;SDS011;9722;48.754;8.868;2023-10-19T01:54:58;6.60;;;5.40;;
19179;SDS011;9722;48.754;8.868;2023-10-19T01:58:27;4.83;;;4.13;;
19179;SDS011;9722;48.754;8.868;2023-10-19T02:01:48;5.30;;;4.07;;
19179;SDS011;9722;48.754;8.868;2023-10-19T02:05:09;3.27;;;2.97;;
19179;SDS011;9722;48.754;8.868;2023-10-19T02:08:35;3.50;;;3.20;;
19179;SDS011;9722;48.754;8.868;2023-10-19T02:11:58;3.83;;;2.97;;
19179;SDS011;9722;48.754;8.868;2023-10-19T02:15:19;3.17;;;2.87;;
19179;SDS011;9722;48.754;8.868;2023-10-19T02:18:42;3.00;;;2.73;;
19179;SDS011;9722;48.754;8.868;2023-10-19T02:22:04;3.63;;;3.10;;
19179;SDS011;9722;48.754;8.868;2023-10-19T02:25:28;3.27;;;2.97;;
19179;SDS011;9722;48.754;8.868;2023-10-19T02:28:50;3.07;;;2.83;;
19179;SDS011;9722;48.754;8.868;2023-10-19T02:32:11;3.80;;;3.00;;
19179;SDS011;9722;48.754;8.868;2023-10-19T02:35:31;3.23;;;2.93;;
19179;SDS011;9722;48.754;8.868;2023-10-19T02:38:52;3.77;;;3.47;;
19179;SDS011;9722;48.754;8.868;2023-10-19T02:42:12;3.60;;;3.10;;
19179;SDS011;9722;48.754;8.868;2023-10-19T02:45:34;3.10;;;2.90;;
19179;SDS011;9722;48.754;8.868;2023-10-19T02:48:54;3.80;;;3.23;;
19179;SDS011;9722;48.754;8.868;2023-10-19T02:52:15;3.40;;;3.10;;
19179;SDS011;9722;48.754;8.868;2023-10-19T02:55:36;3.57;;;3.20;;
19179;SDS011;9722;48.754;8.868;2023-10-19T02:58:56;4.73;;;3.17;;
19179;SDS011;9722;48.754;8.868;2023-10-19T03:02:26;3.93;;;3.17;;
19179;SDS011;9722;48.754;8.868;2023-10-19T03:05:46;4.20;;;3.37;;
19179;SDS011;9722;48.754;8.868;2023-10-19T03:09:07;3.37;;;3.17;;
19179;SDS011;9722;48.754;8.868;2023-10-19T03:12:58;4.30;;;4.00;;
19179;SDS011;9722;48.754;8.868;2023-10-19T03:16:18;4.13;;;3.37;;
19179;SDS011;9722;48.754;8.868;2023-10-19T03:19:40;3.40;;;3.20;;
19179;SDS011;9722;48.754;8.868;2023-10-19T03:23:02;4.20;;;3.40;;
19179;SDS011;9722;48.754;8.868;2023-10-19T03:26:23;4.70;;;3.30;;
19179;SDS011;9722;48.754;8.868;2023-10-19T03:29:51;3.90;;;3.60;;
19179;SDS011;9722;48.754;8.868;2023-10-19T03:33:15;3.03;;;2.73;;
19179;SDS011;9722;48.754;8.868;2023-10-19T03:36:38;3.60;;;3.30;;
19179;SDS011;9722;48.754;8.868;2023-10-19T03:39:59;3.70;;;3.40;;
19179;SDS011;9722;48.754;8.868;2023-10-19T03:43:24;3.97;;;3.63;;
19179;SDS011;9722;48.754;8.868;2023-10-19T03:46:47;3.57;;;2.93;;
19179;SDS011;9722;48.754;8.868;2023-10-19T03:50:13;3.50;;;3.10;;
19179;SDS011;9722;48.754;8.868;2023-10-19T03:53:40;3.30;;;3.00;;
19179;SDS011;9722;48.754;8.868;2023-10-19T03:57:14;3.47;;;2.93;;
19179;SDS011;9722;48.754;8.868;2023-10-19T04:00:39;3.20;;;3.00;;
19179;SDS011;9722;48.754;8.868;2023-10-19T04:03:59;3.43;;;3.07;;
19179;SDS011;9722;48.754;8.868;2023-10-19T04:07:21;3.50;;;3.30;;
19179;SDS011;9722;48.754;8.868;2023-10-19T04:10:42;3.33;;;3.03;;
19179;SDS011;9722;48.754;8.868;2023-10-19T04:14:07;3.60;;;3.30;;
19179;SDS011;9722;48.754;8.868;2023-10-19T04:17:29;3.57;;;3.27;;
19179;SDS011;9722;48.754;8.868;2023-10-19T04:20:49;3.40;;;3.20;;
19179;SDS011;9722;48.754;8.868;2023-10-19T04:24:10;3.27;;;2.93;;
19179;SDS011;9722;48.754;8.868;2023-10-19T04:27:30;3.13;;;2.73;;
19179;SDS011;9722;48.754;8.868;2023-10-19T04:30:52;3.20;;;2.90;;
19179;SDS011;9722;48.754;8.868;2023-10-19T04:34:12;3.90;;;3.60;;
19179;SDS011;9722;48.754;8.868;2023-10-19T04:37:33;3.27;;;3.07;;
19179;SDS011;9722;48.754;8.868;2023-10-19T04:40:53;4.90;;;4.07;;
19179;SDS011;9722;48.754;8.868;2023-10-19T04:44:14;4.00;;;3.37;;
19179;SDS011;9722;48.754;8.868;2023-10-19T04:47:35;4.40;;;4.00;;
19179;SDS011;9722;48.754;8.868;2023-10-19T04:50:56;5.27;;;4.77;;
19179;SDS011;9722;48.754;8.868;2023-10-19T04:54:17;6.87;;;5.43;;
19179;SDS011;9722;48.754;8.868;2023-10-19T04:57:37;4.30;;;3.90;;
19179;SDS011;9722;48.754;8.868;2023-10-19T05:00:58;4.50;;;4.10;;
19179;SDS011;9722;48.754;8.868;2023-10-19T05:04:18;4.53;;;4.13;;
19179;SDS011;9722;48.754;8.868;2023-10-19T05:07:40;5.87;;;4.30;;
19179;SDS011;9722;48.754;8.868;2023-10-19T05:11:02;3.90;;;3.40;;
19179;SDS011;9722;48.754;8.868;2023-10-19T05:14:23;3.20;;;3.00;;
19179;SDS011;9722;48.754;8.868;2023-10-19T05:17:44;3.47;;;3.17;;
19179;SDS011;9722;48.754;8.868;2023-10-19T05:21:05;3.67;;;3.37;;
19179;SDS011;9722;48.754;8.868;2023-10-19T05:24:26;5.77;;;4.27;;
19179;SDS011;9722;48.754;8.868;2023-10-19T05:27:47;17.50;;;12.80;;
19179;SDS011;9722;48.754;8.868;2023-10-19T05:31:09;6.60;;;6.10;;
19179;SDS011;9722;48.754;8.868;2023-10-19T05:34:31;4.53;;;4.13;;
19179;SDS011;9722;48.754;8.868;2023-10-19T05:37:55;4.10;;;3.80;;
19179;SDS011;9722;48.754;8.868;2023-10-19T05:41:16;4.07;;;3.77;;
19179;SDS011;9722;48.754;8.868;2023-10-19T05:44:38;4.33;;;4.03;;
19179;SDS011;9722;48.754;8.868;2023-10-19T05:47:59;5.37;;;4.67;;
19179;SDS011;9722;48.754;8.868;2023-10-19T05:51:20;5.40;;;5.00;;
19179;SDS011;9722;48.754;8.868;2023-10-19T05:54:41;4.97;;;4.57;;
19179;SDS011;9722;48.754;8.868;2023-10-19T05:58:02;5.43;;;5.03;;
19179;SDS011;9722;48.754;8.868;2023-10-19T06:01:25;9.47;;;7.30;;
19179;SDS011;9722;48.754;8.868;2023-10-19T06:04:46;11.37;;;10.57;;
19179;SDS011;9722;48.754;8.868;2023-10-19T06:08:06;5.00;;;3.93;;
19179;SDS011;9722;48.754;8.868;2023-10-19T06:11:28;9.43;;;8.47;;
19179;SDS011;9722;48.754;8.868;2023-10-19T06:14:52;6.90;;;6.30;;
19179;SDS011;9722;48.754;8.868;2023-10-19T06:18:12;8.33;;;7.50;;
19179;SDS011;9722;48.754;8.868;2023-10-19T06:21:33;7.93;;;7.33;;
19179;SDS011;9722;48.754;8.868;2023-10-19T06:24:54;6.23;;;5.77;;
19179;SDS011;9722;48.754;8.868;2023-10-19T06:28:14;5.10;;;4.73;;
19179;SDS011;9722;48.754;8.868;2023-10-19T06:31:35;4.80;;;4.40;;
19179;SDS011;9722;48.754;8.868;2023-10-19T06:34:57;4.77;;;4.40;;
19179;SDS011;9722;48.754;8.868;2023-10-19T06:38:17;6.63;;;5.97;;
19179;SDS011;9722;48.754;8.868;2023-10-19T06:41:38;5.10;;;4.77;;
19179;SDS011;9722;48.754;8.868;2023-10-19T06:44:58;4.87;;;4.50;;
19179;SDS011;9722;48.754;8.868;2023-10-19T06:48:19;5.60;;;5.10;;
19179;SDS011;9722;48.754;8.868;2023-10-19T06:51:39;5.33;;;4.93;;
19179;SDS011;9722;48.754;8.868;2023-10-19T06:55:00;7.30;;;6.60;;
19179;SDS011;9722;48.754;8.868;2023-10-19T06:58:21;7.43;;;6.77;;
19179;SDS011;9722;48.754;8.868;2023-10-19T07:01:41;7.27;;;5.97;;
19179;SDS011;9722;48.754;8.868;2023-10-19T07:05:02;8.83;;;6.17;;
19179;SDS011;9722;48.754;8.868;2023-10-19T07:08:23;7.23;;;6.53;;
19179;SDS011;9722;48.754;8.868;2023-10-19T07:11:43;7.67;;;6.00;;
19179;SDS011;9722;48.754;8.868;2023-10-19T07:15:05;6.20;;;5.47;;
19179;SDS011;9722;48.754;8.868;2023-10-19T07:18:27;5.63;;;5.13;;
19179;SDS011;9722;48.754;8.868;2023-10-19T07:21:48;6.23;;;5.27;;
19179;SDS011;9722;48.754;8.868;2023-10-19T07:25:09;5.90;;;5.33;;
19179;SDS011;9722;48.754;8.868;2023-10-19T07:28:32;4.67;;;4.27;;
19179;SDS011;9722;48.754;8.868;2023-10-19T07:31:52;4.80;;;4.40;;
19179;SDS011;9722;48.754;8.868;2023-10-19T07:35:15;4.10;;;3.70;;
19179;SDS011;9722;48.754;8.868;2023-10-19T07:38:36;3.83;;;3.53;;
19179;SDS011;9722;48.754;8.868;2023-10-19T07:41:58;3.53;;;2.87;;
19179;SDS011;9722;48.754;8.868;2023-10-19T07:45:19;3.37;;;3.17;;
19179;SDS011;9722;48.754;8.868;2023-10-19T07:48:40;4.60;;;4.03;;
19179;SDS011;9722;48.754;8.868;2023-10-19T07:52:00;6.50;;;5.90;;
19179;SDS011;9722;48.754;8.868;2023-10-19T07:55:21;8.80;;;7.00;;
19179;SDS011;9722;48.754;8.868;2023-10-19T07:58:45;9.27;;;7.70;;
19179;SDS011;9722;48.754;8.868;2023-10-19T08:02:06;7.30;;;6.60;;
19179;SDS011;9722;48.754;8.868;2023-10-19T08:05:28;6.37;;;5.77;;
19179;SDS011;9722;48.754;8.868;2023-10-19T08:08:48;5.63;;;4.17;;
19179;SDS011;9722;48.754;8.868;2023-10-19T08:12:10;3.97;;;3.67;;
19179;SDS011;9722;48.754;8.868;2023-10-19T08:15:33;3.70;;;3.23;;
19179;SDS011;9722;48.754;8.868;2023-10-19T08:18:54;3.13;;;2.57;;
19179;SDS011;9722;48.754;8.868;2023-10-19T08:22:15;3.30;;;3.03;;
19179;SDS011;9722;48.754;8.868;2023-10-19T08:25:36;2.60;;;2.40;;
19179;SDS011;9722;48.754;8.868;2023-10-19T08:28:56;2.63;;;2.43;;
19179;SDS011;9722;48.754;8.868;2023-10-19T08:32:18;2.37;;;1.97;;
19179;SDS011;9722;48.754;8.868;2023-10-19T08:35:39;2.90;;;2.60;;
19179;SDS011;9722;48.754;8.868;2023-10-19T08:39:00;5.40;;;3.40;;
19179;SDS011;9722;48.754;8.868;2023-10-19T08:42:25;2.00;;;1.90;;
19179;SDS011;9722;48.754;8.868;2023-10-19T08:45:46;2.10;;;1.90;;
19179;SDS011;9722;48.754;8.868;2023-10-19T08:49:06;2.63;;;1.80;;
19179;SDS011;9722;48.754;8.868;2023-10-19T08:52:30;4.90;;;2.00;;
19179;SDS011;9722;48.754;8.868;2023-10-19T08:55:52;2.50;;;2.03;;
19179;SDS011;9722;48.754;8.868;2023-10-19T08:59:15;1.93;;;1.53;;
19179;SDS011;9722;48.754;8.868;2023-10-19T09:02:36;1.57;;;1.40;;
19179;SDS011;9722;48.754;8.868;2023-10-19T09:06:00;1.77;;;1.67;;
19179;SDS011;9722;48.754;8.868;2023-10-19T09:09:26;2.33;;;2.00;;
19179;SDS011;9722;48.754;8.868;2023-10-19T09:13:02;1.90;;;1.70;;
19179;SDS011;9722;48.754;8.868;2023-10-19T09:16:24;1.80;;;1.70;;
19179;SDS011;9722;48.754;8.868;2023-10-19T09:19:46;1.63;;;1.53;;
19179;SDS011;9722;48.754;8.868;2023-10-19T09:23:08;1.50;;;1.40;;
19179;SDS011;9722;48.754;8.868;2023-10-19T09:26:28;1.50;;;1.40;;
19179;SDS011;9722;48.754;8.868;2023-10-19T09:29:51;3.13;;;1.90;;
19179;SDS011;9722;48.754;8.868;2023-10-19T09:33:12;4.57;;;2.07;;
19179;SDS011;9722;48.754;8.868;2023-10-19T09:36:34;1.67;;;1.57;;
19179;SDS011;9722;48.754;8.868;2023-10-19T09:39:55;1.60;;;1.50;;
19179;SDS011;9722;48.754;8.868;2023-10-19T09:43:21;1.60;;;1.50;;
19179;SDS011;9722;48.754;8.868;2023-10-19T09:47:03;1.67;;;1.57;;
19179;SDS011;9722;48.754;8.868;2023-10-19T09:50:29;1.50;;;1.40;;
19179;SDS011;9722;48.754;8.868;2023-10-19T09:54:00;2.83;;;1.60;;
19179;SDS011;9722;48.754;8.868;2023-10-19T09:57:34;2.37;;;1.50;;
19179;SDS011;9722;48.754;8.868;2023-10-19T10:01:00;1.83;;;1.73;;
19179;SDS011;9722;48.754;8.868;2023-10-19T10:04:30;2.00;;;1.90;;
19179;SDS011;9722;48.754;8.868;2023-10-19T10:11:37;2.70;;;2.03;;
19179;SDS011;9722;48.754;8.868;2023-10-19T10:15:05;3.53;;;1.90;;
19179;SDS011;9722;48.754;8.868;2023-10-19T10:18:30;4.83;;;2.07;;
19179;SDS011;9722;48.754;8.868;2023-10-19T10:22:07;2.37;;;2.17;;
19179;SDS011;9722;48.754;8.868;2023-10-19T10:25:40;3.23;;;2.37;;
19179;SDS011;9722;48.754;8.868;2023-10-19T10:36:10;1.80;;;1.70;;
19179;SDS011;9722;48.754;8.868;2023-10-19T10:39:31;1.80;;;1.67;;
19179;SDS011;9722;48.754;8.868;2023-10-19T10:43:04;2.17;;;1.93;;
19179;SDS011;9722;48.754;8.868;2023-10-19T10:46:26;1.90;;;1.80;;
19179;SDS011;9722;48.754;8.868;2023-10-19T10:49:49;1.57;;;1.10;;
19179;SDS011;9722;48.754;8.868;2023-10-19T10:53:10;1.30;;;1.20;;
19179;SDS011;9722;48.754;8.868;2023-10-19T10:56:31;1.57;;;1.00;;
19179;SDS011;9722;48.754;8.868;2023-10-19T11:00:02;1.10;;;1.07;;
19179;SDS011;9722;48.754;8.868;2023-10-19T11:03:24;1.70;;;1.37;;
19179;SDS011;9722;48.754;8.868;2023-10-19T11:06:50;2.20;;;1.70;;
19179;SDS011;9722;48.754;8.868;2023-10-19T11:10:12;1.63;;;1.37;;
19179;SDS011;9722;48.754;8.868;2023-10-19T11:13:33;2.13;;;1.43;;
19179;SDS011;9722;48.754;8.868;2023-10-19T11:16:55;2.27;;;1.40;;
19179;SDS011;9722;48.754;8.868;2023-10-19T11:20:33;2.47;;;1.37;;
19179;SDS011;9722;48.754;8.868;2023-10-19T11:23:54;2.40;;;1.80;;
19179;SDS011;9722;48.754;8.868;2023-10-19T11:27:21;1.97;;;1.87;;
19179;SDS011;9722;48.754;8.868;2023-10-19T11:30:46;3.40;;;2.97;;
19179;SDS011;9722;48.754;8.868;2023-10-19T11:34:08;2.00;;;1.90;;
19179;SDS011;9722;48.754;8.868;2023-10-19T11:37:29;2.67;;;2.47;;
19179;SDS011;9722;48.754;8.868;2023-10-19T11:41:02;4.10;;;2.63;;
19179;SDS011;9722;48.754;8.868;2023-10-19T11:44:23;3.70;;;1.80;;
19179;SDS011;9722;48.754;8.868;2023-10-19T11:47:44;2.30;;;1.57;;
19179;SDS011;9722;48.754;8.868;2023-10-19T11:51:05;2.80;;;1.60;;
19179;SDS011;9722;48.754;8.868;2023-10-19T11:54:26;2.13;;;1.73;;
19179;SDS011;9722;48.754;8.868;2023-10-19T11:57:47;2.73;;;1.67;;
19179;SDS011;9722;48.754;8.868;2023-10-19T12:01:08;2.57;;;2.07;;
19179;SDS011;9722;48.754;8.868;2023-10-19T12:04:32;1.60;;;1.50;;
19179;SDS011;9722;48.754;8.868;2023-10-19T12:07:56;3.50;;;1.70;;
19179;SDS011;9722;48.754;8.868;2023-10-19T12:11:16;1.80;;;1.70;;
19179;SDS011;9722;48.754;8.868;2023-10-19T12:14:38;4.80;;;1.90;;
19179;SDS011;9722;48.754;8.868;2023-10-19T12:17:59;2.10;;;1.90;;
19179;SDS011;9722;48.754;8.868;2023-10-19T12:21:22;1.73;;;1.63;;
19179;SDS011;9722;48.754;8.868;2023-10-19T12:24:47;2.40;;;2.20;;
19179;SDS011;9722;48.754;8.868;2023-10-19T12:28:08;2.00;;;1.90;;
19179;SDS011;9722;48.754;8.868;2023-10-19T12:31:33;2.30;;;2.10;;
19179;SDS011;9722;48.754;8.868;2023-10-19T12:34:53;1.77;;;1.67;;
19179;SDS011;9722;48.754;8.868;2023-10-19T12:38:17;2.27;;;1.80;;
19179;SDS011;9722;48.754;8.868;2023-10-19T12:41:39;2.37;;;2.20;;
19179;SDS011;9722;48.754;8.868;2023-10-19T12:45:00;2.07;;;1.87;;
19179;SDS011;9722;48.754;8.868;2023-10-19T12:48:20;2.27;;;1.77;;
19179;SDS011;9722;48.754;8.868;2023-10-19T12:51:41;2.07;;;1.70;;
19179;SDS011;9722;48.754;8.868;2023-10-19T12:55:02;2.23;;;2.03;;
19179;SDS011;9722;48.754;8.868;2023-10-19T12:58:24;2.10;;;1.83;;
19179;SDS011;9722;48.754;8.868;2023-10-19T13:01:46;1.93;;;1.77;;
19179;SDS011;9722;48.754;8.868;2023-10-19T13:05:08;1.93;;;1.80;;
19179;SDS011;9722;48.754;8.868;2023-10-19T13:08:30;4.00;;;2.20;;
19179;SDS011;9722;48.754;8.868;2023-10-19T13:11:50;2.40;;;2.20;;
19179;SDS011;9722;48.754;8.868;2023-10-19T13:15:11;2.40;;;2.20;;
19179;SDS011;9722;48.754;8.868;2023-10-19T13:18:35;2.77;;;2.13;;
19179;SDS011;9722;48.754;8.868;2023-10-19T13:21:56;2.60;;;2.40;;
19179;SDS011;9722;48.754;8.868;2023-10-19T13:25:20;2.30;;;2.10;;
19179;SDS011;9722;48.754;8.868;2023-10-19T13:28:58;3.73;;;2.17;;
19179;SDS011;9722;48.754;8.868;2023-10-19T13:32:19;4.60;;;2.63;;
19179;SDS011;9722;48.754;8.868;2023-10-19T13:35:40;3.10;;;2.90;;
19179;SDS011;9722;48.754;8.868;2023-10-19T13:39:02;4.20;;;3.33;;
19179;SDS011;9722;48.754;8.868;2023-10-19T13:42:23;4.43;;;3.37;;
19179;SDS011;9722;48.754;8.868;2023-10-19T13:45:44;3.10;;;2.80;;
19179;SDS011;9722;48.754;8.868;2023-10-19T13:49:07;2.93;;;2.70;;
19179;SDS011;9722;48.754;8.868;2023-10-19T13:52:29;4.37;;;3.10;;
19179;SDS011;9722;48.754;8.868;2023-10-19T13:55:50;4.87;;;2.93;;
19179;SDS011;9722;48.754;8.868;2023-10-19T13:59:10;3.93;;;3.10;;
19179;SDS011;9722;48.754;8.868;2023-10-19T14:02:32;3.07;;;2.70;;
19179;SDS011;9722;48.754;8.868;2023-10-19T14:05:52;4.70;;;2.67;;
19179;SDS011;9722;48.754;8.868;2023-10-19T14:09:16;3.07;;;2.77;;
19179;SDS011;9722;48.754;8.868;2023-10-19T14:12:37;3.93;;;3.53;;
19179;SDS011;9722;48.754;8.868;2023-10-19T14:16:05;3.50;;;3.20;;
19179;SDS011;9722;48.754;8.868;2023-10-19T14:19:27;2.40;;;2.20;;
19179;SDS011;9722;48.754;8.868;2023-10-19T14:22:49;2.03;;;1.83;;
19179;SDS011;9722;48.754;8.868;2023-10-19T14:26:10;2.70;;;2.30;;
19179;SDS011;9722;48.754;8.868;2023-10-19T14:29:31;2.67;;;2.10;;
19179;SDS011;9722;48.754;8.868;2023-10-19T14:32:52;4.40;;;2.10;;
19179;SDS011;9722;48.754;8.868;2023-10-19T14:36:12;2.57;;;2.37;;
19179;SDS011;9722;48.754;8.868;2023-10-19T14:39:33;3.67;;;2.57;;
19179;SDS011;9722;48.754;8.868;2023-10-19T14:42:54;3.10;;;2.83;;
19179;SDS011;9722;48.754;8.868;2023-10-19T14:46:16;3.50;;;3.20;;
19179;SDS011;9722;48.754;8.868;2023-10-19T14:49:37;4.00;;;3.70;;
19179;SDS011;9722;48.754;8.868;2023-10-19T14:52:57;4.23;;;3.93;;
19179;SDS011;9722;48.754;8.868;2023-10-19T14:56:19;5.30;;;4.43;;
19179;SDS011;9722;48.754;8.868;2023-10-19T14:59:40;3.93;;;3.57;;
19179;SDS011;9722;48.754;8.868;2023-10-19T15:03:01;3.90;;;3.60;;
19179;SDS011;9722;48.754;8.868;2023-10-19T15:06:27;4.37;;;2.90;;
19179;SDS011;9722;48.754;8.868;2023-10-19T15:09:49;5.57;;;4.20;;
19179;SDS011;9722;48.754;8.868;2023-10-19T15:13:09;3.47;;;3.17;;
19179;SDS011;9722;48.754;8.868;2023-10-19T15:16:30;3.70;;;3.40;;
19179;SDS011;9722;48.754;8.868;2023-10-19T15:19:52;4.57;;;3.70;;
19179;SDS011;9722;48.754;8.868;2023-10-19T15:23:13;4.60;;;4.20;;
19179;SDS011;9722;48.754;8.868;2023-10-19T15:26:33;3.90;;;3.50;;
19179;SDS011;9722;48.754;8.868;2023-10-19T15:29:57;4.03;;;3.63;;
19179;SDS011;9722;48.754;8.868;2023-10-19T15:33:17;5.27;;;3.13;;
19179;SDS011;9722;48.754;8.868;2023-10-19T15:36:38;3.07;;;2.67;;
19179;SDS011;9722;48.754;8.868;2023-10-19T15:39:58;5.10;;;3.37;;
19179;SDS011;9722;48.754;8.868;2023-10-19T15:43:19;5.53;;;3.50;;
19179;SDS011;9722;48.754;8.868;2023-10-19T15:46:43;3.20;;;2.90;;
19179;SDS011;9722;48.754;8.868;2023-10-19T15:50:06;3.80;;;3.40;;
19179;SDS011;9722;48.754;8.868;2023-10-19T15:53:32;4.87;;;3.63;;
19179;SDS011;9722;48.754;8.868;2023-10-19T15:56:53;5.23;;;4.10;;
19179;SDS011;9722;48.754;8.868;2023-10-19T16:00:14;2.50;;;2.30;;
19179;SDS011;9722;48.754;8.868;2023-10-19T16:03:35;2.60;;;2.40;;
19179;SDS011;9722;48.754;8.868;2023-10-19T16:06:55;3.13;;;2.80;;
19179;SDS011;9722;48.754;8.868;2023-10-19T16:10:16;4.10;;;2.47;;
19179;SDS011;9722;48.754;8.868;2023-10-19T16:13:37;5.10;;;2.27;;
19179;SDS011;9722;48.754;8.868;2023-10-19T16:16:59;3.53;;;3.23;;
19179;SDS011;9722;48.754;8.868;2023-10-19T16:20:19;4.47;;;3.90;;
19179;SDS011;9722;48.754;8.868;2023-10-19T16:23:40;4.87;;;4.47;;
19179;SDS011;9722;48.754;8.868;2023-10-19T16:27:01;4.23;;;3.83;;
19179;SDS011;9722;48.754;8.868;2023-10-19T16:30:22;2.80;;;2.57;;
19179;SDS011;9722;48.754;8.868;2023-10-19T16:33:42;4.23;;;2.63;;
19179;SDS011;9722;48.754;8.868;2023-10-19T16:37:03;2.93;;;2.63;;
19179;SDS011;9722;48.754;8.868;2023-10-19T16:40:23;3.03;;;2.67;;
19179;SDS011;9722;48.754;8.868;2023-10-19T16:43:45;3.77;;;3.47;;
19179;SDS011;9722;48.754;8.868;2023-10-19T16:47:06;4.87;;;4.47;;
19179;SDS011;9722;48.754;8.868;2023-10-19T16:50:27;4.83;;;4.43;;
19179;SDS011;9722;48.754;8.868;2023-10-19T16:53:48;4.23;;;3.73;;
19179;SDS011;9722;48.754;8.868;2023-10-19T16:57:09;3.77;;;3.37;;
19179;SDS011;9722;48.754;8.868;2023-10-19T17:00:29;4.00;;;3.00;;
19179;SDS011;9722;48.754;8.868;2023-10-19T17:03:51;3.90;;;3.50;;
19179;SDS011;9722;48.754;8.868;2023-10-19T17:07:12;4.43;;;4.03;;
19179;SDS011;9722;48.754;8.868;2023-10-19T17:10:33;3.73;;;3.43;;
19179;SDS011;9722;48.754;8.868;2023-10-19T17:13:53;4.60;;;3.33;;
19179;SDS011;9722;48.754;8.868;2023-10-19T17:17:15;3.60;;;3.30;;
19179;SDS011;9722;48.754;8.868;2023-10-19T17:20:35;3.53;;;3.23;;
19179;SDS011;9722;48.754;8.868;2023-10-19T17:23:56;5.47;;;4.97;;
19179;SDS011;9722;48.754;8.868;2023-10-19T17:27:17;3.87;;;3.50;;
19179;SDS011;9722;48.754;8.868;2023-10-19T17:30:38;4.17;;;3.83;;
19179;SDS011;9722;48.754;8.868;2023-10-19T17:33:59;4.70;;;3.50;;
19179;SDS011;9722;48.754;8.868;2023-10-19T17:37:20;3.83;;;3.53;;
19179;SDS011;9722;48.754;8.868;2023-10-19T17:40:41;5.50;;;5.00;;
19179;SDS011;9722;48.754;8.868;2023-10-19T17:44:01;6.63;;;5.57;;
19179;SDS011;9722;48.754;8.868;2023-10-19T17:47:23;3.70;;;3.40;;
19179;SDS011;9722;48.754;8.868;2023-10-19T17:50:44;4.80;;;4.40;;
19179;SDS011;9722;48.754;8.868;2023-10-19T17:54:04;4.77;;;4.37;;
19179;SDS011;9722;48.754;8.868;2023-10-19T17:57:29;5.67;;;5.13;;
19179;SDS011;9722;48.754;8.868;2023-10-19T18:00:51;5.50;;;5.10;;
19179;SDS011;9722;48.754;8.868;2023-10-19T18:04:11;5.47;;;5.07;;
19179;SDS011;9722;48.754;8.868;2023-10-19T18:07:32;6.17;;;5.57;;
19179;SDS011;9722;48.754;8.868;2023-10-19T18:10:53;6.10;;;5.60;;
19179;SDS011;9722;48.754;8.868;2023-10-19T18:14:16;6.60;;;6.00;;
19179;SDS011;9722;48.754;8.868;2023-10-19T18:17:37;7.53;;;6.13;;
19179;SDS011;9722;48.754;8.868;2023-10-19T18:20:59;10.00;;;7.30;;
19179;SDS011;9722;48.754;8.868;2023-10-19T18:24:20;8.87;;;7.97;;
19179;SDS011;9722;48.754;8.868;2023-10-19T18:27:41;14.87;;;11.17;;
19179;SDS011;9722;48.754;8.868;2023-10-19T18:31:01;11.03;;;9.70;;
19179;SDS011;9722;48.754;8.868;2023-10-19T18:34:22;5.90;;;5.40;;
19179;SDS011;9722;48.754;8.868;2023-10-19T18:37:45;8.00;;;7.40;;
19179;SDS011;9722;48.754;8.868;2023-10-19T18:41:09;8.40;;;5.73;;
19179;SDS011;9722;48.754;8.868;2023-10-19T18:44:31;8.73;;;8.03;;
19179;SDS011;9722;48.754;8.868;2023-10-19T18:47:52;4.80;;;4.40;;
19179;SDS011;9722;48.754;8.868;2023-10-19T18:51:12;5.00;;;4.60;;
19179;SDS011;9722;48.754;8.868;2023-10-19T18:54:33;4.57;;;4.20;;
19179;SDS011;9722;48.754;8.868;2023-10-19T18:57:53;4.63;;;4.27;;
19179;SDS011;9722;48.754;8.868;2023-10-19T19:01:17;6.60;;;5.07;;
19179;SDS011;9722;48.754;8.868;2023-10-19T19:04:38;5.03;;;4.50;;
19179;SDS011;9722;48.754;8.868;2023-10-19T19:07:59;4.67;;;4.37;;
19179;SDS011;9722;48.754;8.868;2023-10-19T19:11:20;5.20;;;3.97;;
19179;SDS011;9722;48.754;8.868;2023-10-19T19:14:40;5.07;;;4.70;;
19179;SDS011;9722;48.754;8.868;2023-10-19T19:18:01;4.77;;;4.37;;
19179;SDS011;9722;48.754;8.868;2023-10-19T19:21:21;5.60;;;5.20;;
19179;SDS011;9722;48.754;8.868;2023-10-19T19:24:42;5.53;;;5.07;;
19179;SDS011;9722;48.754;8.868;2023-10-19T19:28:03;5.90;;;5.40;;
19179;SDS011;9722;48.754;8.868;2023-10-19T19:31:25;6.97;;;6.33;;
19179;SDS011;9722;48.754;8.868;2023-10-19T19:34:46;6.17;;;5.57;;
19179;SDS011;9722;48.754;8.868;2023-10-19T19:38:06;8.13;;;7.33;;
19179;SDS011;9722;48.754;8.868;2023-10-19T19:41:27;10.57;;;9.47;;
19179;SDS011;9722;48.754;8.868;2023-10-19T19:44:48;8.23;;;7.43;;
19179;SDS011;9722;48.754;8.868;2023-10-19T19:48:08;7.63;;;7.03;;
19179;SDS011;9722;48.754;8.868;2023-10-19T19:51:32;8.10;;;7.50;;
19179;SDS011;9722;48.754;8.868;2023-10-19T19:54:53;7.57;;;6.97;;
19179;SDS011;9722;48.754;8.868;2023-10-19T19:58:16;6.77;;;6.17;;
19179;SDS011;9722;48.754;8.868;2023-10-19T20:01:39;9.00;;;5.97;;
19179;SDS011;9722;48.754;8.868;2023-10-19T20:05:00;6.73;;;6.13;;
19179;SDS011;9722;48.754;8.868;2023-10-19T20:08:21;7.70;;;6.07;;
19179;SDS011;9722;48.754;8.868;2023-10-19T20:11:41;6.50;;;6.00;;
19179;SDS011;9722;48.754;8.868;2023-10-19T20:15:02;5.80;;;5.47;;
19179;SDS011;9722;48.754;8.868;2023-10-19T20:18:24;7.17;;;5.53;;
19179;SDS011;9722;48.754;8.868;2023-10-19T20:21:45;5.37;;;4.97;;
19179;SDS011;9722;48.754;8.868;2023-10-19T20:25:07;6.73;;;5.97;;
19179;SDS011;9722;48.754;8.868;2023-10-19T20:28:31;6.43;;;5.90;;
19179;SDS011;9722;48.754;8.868;2023-10-19T20:31:53;6.60;;;6.10;;
19179;SDS011;9722;48.754;8.868;2023-10-19T20:35:14;6.30;;;5.80;;
19179;SDS011;9722;48.754;8.868;2023-10-19T20:38:37;7.37;;;6.77;;
19179;SDS011;9722;48.754;8.868;2023-10-19T20:41:58;7.20;;;6.60;;
19179;SDS011;9722;48.754;8.868;2023-10-19T20:45:18;6.90;;;6.17;;
19179;SDS011;9722;48.754;8.868;2023-10-19T20:48:39;8.27;;;7.67;;
19179;SDS011;9722;48.754;8.868;2023-10-19T20:52:00;12.30;;;10.57;;